METAR AND TAF INFORMATION
METAR FOR KY31
ADDS - METARS form results

(0753 UTC 19 December 2018)
Data provider http://aviationweather.gov/metar/data/
 
METAR text: KY31 190735Z AUTO 00000KT 10SM CLR M03/M05 A2994 RMK AO2 T10331048
Conditions at: KY31 (WEST BRANCH , MI, US) observed 0735 UTC 19 December 2018
Temperature: -3.3°C (26°F)
Dewpoint: -4.8°C (23°F) [RH = 89%]
Pressure (altimeter): 29.94 inches Hg (1014.0 mb)
Winds: calm
Visibility: 10 or more miles (16+ km)
Ceiling: at least 12,000 feet AGL
Clouds: sky clear below 12,000 feet AGL
Weather: automated observation with no human augmentation;
there may or may not be significant weather present at this time

METAR text: KY31 190715Z AUTO 00000KT 10SM CLR M03/M05 A2993 RMK AO2 T10351050
Conditions at: KY31 (WEST BRANCH , MI, US) observed 0715 UTC 19 December 2018
Temperature: -3.5°C (26°F)
Dewpoint: -5.0°C (23°F) [RH = 89%]
Pressure (altimeter): 29.93 inches Hg (1013.6 mb)
Winds: calm
Visibility: 10 or more miles (16+ km)
Ceiling: at least 12,000 feet AGL
Clouds: sky clear below 12,000 feet AGL
Weather: automated observation with no human augmentation;
there may or may not be significant weather present at this time

METAR text: KY31 190655Z AUTO 00000KT 10SM CLR M03/M05 A2993 RMK AO2 T10331047
Conditions at: KY31 (WEST BRANCH , MI, US) observed 0655 UTC 19 December 2018
Temperature: -3.3°C (26°F)
Dewpoint: -4.7°C (24°F) [RH = 90%]
Pressure (altimeter): 29.93 inches Hg (1013.6 mb)
Winds: calm
Visibility: 10 or more miles (16+ km)
Ceiling: at least 12,000 feet AGL
Clouds: sky clear below 12,000 feet AGL
Weather: automated observation with no human augmentation;
there may or may not be significant weather present at this time

 AIRPORT MAP

Esri Leaflet Quickstart
 RUNWAY INFORMATION
Runway 09 Runway length 5000 ft Runway width 100 ft
Runway elevation 881 ft Runway displaced threshold 0 ft Runway heading 89
Runway 27 Runway length 5000 ft Runway width 100 ft
Runway elevation 860 ft Runway displaced threshold 0 ft Runway heading 269

 AIRPORT FREQUENCIES
Type CNTR Name MINNEAPOLI Frequency 118.525 MHZ
Type RDO Name LANSING RD Frequency 122.35 MHZ
Type UNIC Name CTAF/UNICO Frequency 122.8 MHZ

 AIRPORT NEAR NAVIGATION AIDS



Powered by Virtual Airlines Manager [v2.6.2]